James, Iowa
Current Conditions -  °F | °C
As of 10:52 AM on Friday 24 Oct 2014 (Local Time) from KSUX Reporting Station
Clear Clear  
Wind Chill: 63°   Ceiling: Unl
Heat Index: 63°   Visibility: 10mi
Dew Point: 55°   Wind: 3mph
Humidity: 75%   Direction: NA
Pressure: 29.92"   Gusts: NA
Location:  42.5567°N, 96.3605°W
Report Text: KSUX 241552Z VRB03KT 10SM CLR 17/13 A2992 RMK AO2 SLP131 T01720128
Loading
Personal Weather Stations






























Interactive Weather Map
Tropical Storm Tracking
New forecast layout! Learn more

10-Day Weather Forecast

Advertisements
Track Severe Weather on mobile